createdAt,value
2018-09-24T00:01:33.300Z,8.40
2018-09-24T00:04:01.124Z,8.40
2018-09-24T00:06:29.009Z,8.30
2018-09-24T00:08:56.904Z,8.30
2018-09-24T00:11:24.614Z,8.30
2018-09-24T00:13:52.373Z,8.30
2018-09-24T00:16:20.154Z,8.30
2018-09-24T00:18:47.935Z,8.30
2018-09-24T00:21:16.048Z,8.30
2018-09-24T00:23:43.736Z,8.30
2018-09-24T00:26:11.371Z,8.30
2018-09-24T00:28:39.074Z,8.30
2018-09-24T00:31:07.308Z,8.30
2018-09-24T00:33:35.258Z,8.30
2018-09-24T00:36:03.740Z,8.30
2018-09-24T00:38:31.775Z,8.30
2018-09-24T00:41:00.023Z,8.30
2018-09-24T00:43:28.820Z,8.30
2018-09-24T00:45:56.674Z,8.30
2018-09-24T00:48:24.403Z,8.30
2018-09-24T00:50:52.505Z,8.30
2018-09-24T00:53:20.833Z,8.30
2018-09-24T00:55:48.491Z,8.30
2018-09-24T00:58:16.299Z,8.20
2018-09-24T01:00:44.115Z,8.20
2018-09-24T01:03:11.790Z,8.10
2018-09-24T01:05:40.259Z,8.10
2018-09-24T01:08:07.812Z,8.10
2018-09-24T01:10:35.606Z,8.00
2018-09-24T01:13:03.400Z,8.10
2018-09-24T01:15:31.246Z,8.10
2018-09-24T01:17:59.134Z,8.00
2018-09-24T01:20:26.860Z,8.00
2018-09-24T01:22:54.706Z,7.90
2018-09-24T01:25:22.356Z,7.90
2018-09-24T01:27:50.622Z,7.90
2018-09-24T01:30:18.384Z,7.80
2018-09-24T01:32:46.054Z,7.80
2018-09-24T01:35:13.719Z,7.80
2018-09-24T01:37:42.023Z,7.80
2018-09-24T01:40:09.815Z,7.80
2018-09-24T01:42:37.608Z,7.70
2018-09-24T01:45:05.560Z,7.70
2018-09-24T01:47:33.354Z,7.70
2018-09-24T01:50:01.648Z,7.70
2018-09-24T01:52:29.340Z,7.70
2018-09-24T01:54:57.063Z,7.80
2018-09-24T01:57:24.602Z,7.80
2018-09-24T01:59:53.895Z,7.80
2018-09-24T02:02:21.659Z,7.80
2018-09-24T02:04:49.848Z,7.70
2018-09-24T02:07:17.465Z,7.80
2018-09-24T02:09:45.608Z,7.80
2018-09-24T02:12:13.584Z,7.80
2018-09-24T02:14:41.509Z,7.80
2018-09-24T02:17:18.987Z,7.90
2018-09-24T02:19:47.673Z,7.80
2018-09-24T02:22:20.550Z,7.80
2018-09-24T02:24:48.326Z,7.80
2018-09-24T02:27:16.270Z,7.80
2018-09-24T02:29:43.983Z,7.70
2018-09-24T02:32:11.737Z,7.70
2018-09-24T02:34:40.241Z,7.80
2018-09-24T02:37:08.738Z,7.80
2018-09-24T02:39:36.698Z,7.80
2018-09-24T02:42:04.442Z,7.90
2018-09-24T02:44:32.158Z,7.90
2018-09-24T02:46:59.903Z,7.90
2018-09-24T02:49:27.778Z,7.90
2018-09-24T02:52:01.123Z,8.00
2018-09-24T02:54:29.120Z,8.00
2018-09-24T02:56:56.821Z,8.00
2018-09-24T02:59:24.624Z,8.00
2018-09-24T03:01:52.357Z,8.00
2018-09-24T03:04:19.785Z,8.00
2018-09-24T03:06:47.585Z,8.00
2018-09-24T03:09:16.872Z,7.90
2018-09-24T03:11:44.869Z,7.90
2018-09-24T03:14:12.784Z,7.90
2018-09-24T03:16:40.699Z,7.90
2018-09-24T03:19:08.614Z,7.90
2018-09-24T03:21:36.422Z,7.90
2018-09-24T03:24:04.358Z,7.90
2018-09-24T03:26:33.658Z,7.80
2018-09-24T03:29:01.519Z,7.80
2018-09-24T03:31:34.386Z,7.80
2018-09-24T03:34:02.445Z,7.80
2018-09-24T03:36:30.394Z,7.80
2018-09-24T03:38:59.443Z,7.80
2018-09-24T03:41:27.178Z,7.90
2018-09-24T03:43:54.887Z,7.90
2018-09-24T03:46:22.340Z,7.90
2018-09-24T03:48:50.067Z,7.90
2018-09-24T03:51:17.947Z,7.90
2018-09-24T03:53:45.559Z,7.90
2018-09-24T03:56:13.223Z,7.80
2018-09-24T03:58:41.503Z,7.80
2018-09-24T04:01:09.519Z,7.70
2018-09-24T04:03:37.012Z,7.70
2018-09-24T04:06:10.262Z,7.70
2018-09-24T04:08:43.625Z,7.70
2018-09-24T04:11:16.817Z,7.70
2018-09-24T04:13:49.986Z,7.70
2018-09-24T04:16:23.098Z,7.70
2018-09-24T04:18:56.599Z,7.80
2018-09-24T04:21:30.048Z,7.80
2018-09-24T04:24:03.505Z,7.80
2018-09-24T04:26:37.072Z,7.80
2018-09-24T04:29:10.910Z,7.70
2018-09-24T04:31:44.094Z,7.70
2018-09-24T04:34:17.288Z,7.70
2018-09-24T04:36:50.491Z,7.70
2018-09-24T04:39:23.754Z,7.70
2018-09-24T04:41:56.955Z,7.70
2018-09-24T04:44:30.515Z,7.70
2018-09-24T04:47:04.114Z,7.70
2018-09-24T04:49:37.437Z,7.80
2018-09-24T04:52:10.751Z,7.70
2018-09-24T04:54:44.389Z,7.70
2018-09-24T04:57:17.620Z,7.70
2018-09-24T04:59:50.694Z,7.70
2018-09-24T05:02:24.700Z,7.70
2018-09-24T05:04:58.207Z,7.70
2018-09-24T05:07:31.745Z,7.70
2018-09-24T05:10:05.200Z,7.70
2018-09-24T05:12:38.793Z,7.80
2018-09-24T05:15:12.136Z,7.80
2018-09-24T05:17:45.531Z,7.80
2018-09-24T05:20:18.711Z,7.80
2018-09-24T05:22:51.940Z,7.80
2018-09-24T05:25:25.345Z,7.90
2018-09-24T05:27:58.624Z,7.80
2018-09-24T05:30:32.359Z,7.80
2018-09-24T05:33:05.640Z,7.80
2018-09-24T05:35:39.270Z,7.80
2018-09-24T05:38:12.640Z,7.70
2018-09-24T05:40:45.974Z,7.70
2018-09-24T05:43:19.116Z,7.70
2018-09-24T05:45:52.389Z,7.70
2018-09-24T05:48:25.719Z,7.70
2018-09-24T05:50:59.053Z,7.80
2018-09-24T05:53:32.338Z,7.80
2018-09-24T05:56:05.665Z,7.70
2018-09-24T05:58:39.768Z,7.80
2018-09-24T06:01:13.282Z,7.80
2018-09-24T06:03:46.503Z,7.70
2018-09-24T06:06:19.700Z,7.70
2018-09-24T06:23:39.439Z,7.90
2018-09-24T06:26:25.988Z,13.20
2018-09-24T06:32:14.065Z,10.90
2018-09-24T06:34:47.490Z,9.90
2018-09-24T06:37:20.872Z,9.50
2018-09-24T06:39:54.105Z,9.20
2018-09-24T06:42:27.388Z,9.10
2018-09-24T06:45:00.686Z,8.90
2018-09-24T06:47:34.581Z,8.90
2018-09-24T06:50:07.819Z,8.90
2018-09-24T06:52:41.236Z,8.80
2018-09-24T06:55:15.259Z,8.80
2018-09-24T06:57:48.651Z,8.80
2018-09-24T07:00:22.401Z,9.20
2018-09-24T07:02:55.581Z,9.60
2018-09-24T07:05:29.315Z,10.50
2018-09-24T07:08:02.720Z,11.10
2018-09-24T07:10:36.089Z,10.70
2018-09-24T07:13:09.435Z,10.20
2018-09-24T07:15:42.868Z,9.60
2018-09-24T07:18:16.112Z,9.20
2018-09-24T07:20:49.380Z,9.00
2018-09-24T07:23:22.675Z,8.90
2018-09-24T07:25:56.850Z,8.90
2018-09-24T07:28:30.506Z,9.30
2018-09-24T07:31:18.938Z,9.10
2018-09-24T07:33:58.383Z,8.80
2018-09-24T07:36:37.961Z,8.70
2018-09-24T07:39:15.761Z,8.90
2018-09-24T07:41:51.204Z,11.40
2018-09-24T07:44:26.879Z,13.40
2018-09-24T07:47:05.994Z,14.90
2018-09-24T07:49:43.268Z,15.60
2018-09-24T07:52:19.015Z,16.00
2018-09-24T07:54:53.669Z,16.10
2018-09-24T07:57:29.878Z,15.00
2018-09-24T08:00:08.770Z,14.10
2018-09-24T08:02:47.221Z,14.20
2018-09-24T08:05:27.409Z,13.90
2018-09-24T08:10:45.831Z,13.00
2018-09-24T08:13:19.843Z,12.60
2018-09-24T08:15:54.430Z,12.10
2018-09-24T08:18:36.812Z,11.60
2018-09-24T08:24:27.052Z,10.70
2018-09-24T08:30:18.665Z,11.00
2018-09-24T08:32:57.837Z,12.20
2018-09-24T08:35:35.429Z,12.90
2018-09-24T08:38:12.017Z,12.90
2018-09-24T08:40:52.624Z,12.80
2018-09-24T08:43:31.054Z,12.30
2018-09-24T08:46:05.265Z,11.90
2018-09-24T08:48:45.561Z,11.50
2018-09-24T08:51:22.267Z,11.30
2018-09-24T10:42:37.344Z,10.80
2018-09-24T10:45:10.662Z,11.00
2018-09-24T10:47:43.933Z,11.30
2018-09-24T10:50:17.883Z,11.60
2018-09-24T10:52:51.248Z,11.60
2018-09-24T10:55:24.355Z,11.40
2018-09-24T10:58:00.868Z,11.20
2018-09-24T11:00:34.604Z,10.90
2018-09-24T11:03:10.377Z,10.70
2018-09-24T11:05:46.585Z,10.60
2018-09-24T11:08:20.481Z,10.50
2018-09-24T11:10:53.856Z,10.50
2018-09-24T11:13:26.993Z,10.60
2018-09-24T11:16:00.682Z,11.20
2018-09-24T11:18:34.370Z,12.10
2018-09-24T11:21:09.832Z,12.70
2018-09-24T11:23:43.212Z,13.00
2018-09-24T11:28:49.497Z,12.20
2018-09-24T11:31:22.625Z,11.80
2018-09-24T11:33:55.783Z,11.60
2018-09-24T11:36:28.864Z,11.50
2018-09-24T11:39:02.153Z,11.70
2018-09-24T11:41:36.061Z,11.70
2018-09-24T11:44:09.575Z,11.50
2018-09-24T11:46:43.559Z,11.20
2018-09-24T11:49:16.882Z,11.10
2018-09-24T11:51:52.291Z,10.90
2018-09-24T11:54:26.254Z,10.70
2018-09-24T11:56:59.588Z,10.60
2018-09-24T11:59:33.162Z,10.50
2018-09-24T12:02:06.546Z,10.80
2018-09-24T12:04:40.378Z,11.40
2018-09-24T12:07:14.292Z,12.20
2018-09-24T12:09:47.593Z,12.70
2018-09-24T12:12:20.693Z,12.60
2018-09-24T12:14:55.125Z,12.40
2018-09-24T12:17:28.543Z,12.40
2018-09-24T12:20:02.878Z,12.70
2018-09-24T12:22:36.163Z,12.80
2018-09-24T12:25:10.030Z,13.30
2018-09-24T12:27:43.218Z,14.00
2018-09-24T12:30:17.246Z,14.20
2018-09-24T12:32:51.788Z,14.00
2018-09-24T12:35:25.169Z,13.60
2018-09-24T12:37:59.016Z,13.30
2018-09-24T12:40:32.430Z,12.90
2018-09-24T12:43:06.127Z,12.40
2018-09-24T12:45:39.530Z,11.80
2018-09-24T12:48:13.813Z,11.40
2018-09-24T12:50:51.350Z,10.80
2018-09-24T12:53:28.034Z,10.40
2018-09-24T12:56:03.059Z,10.20
2018-09-24T12:58:39.000Z,10.10
2018-09-24T13:01:15.195Z,10.00
2018-09-24T13:03:51.893Z,10.10
2018-09-24T13:06:25.690Z,10.40
2018-09-24T13:09:00.121Z,10.90
2018-09-24T13:11:33.931Z,11.40
2018-09-24T13:14:07.840Z,11.70
2018-09-24T13:16:42.232Z,12.10
2018-09-24T13:19:16.915Z,12.40
2018-09-24T13:21:50.286Z,12.70
2018-09-24T13:24:24.365Z,13.00
2018-09-24T13:26:57.821Z,13.30
2018-09-24T13:29:31.390Z,13.10
2018-09-24T13:32:04.921Z,12.90
2018-09-24T13:34:38.628Z,13.10
2018-09-24T13:37:13.170Z,13.30
2018-09-24T13:39:46.577Z,13.30
2018-09-24T13:42:20.000Z,13.40
2018-09-24T13:44:53.433Z,13.70
2018-09-24T13:47:28.126Z,13.60
2018-09-24T13:50:01.829Z,13.30
2018-09-24T13:52:35.685Z,12.60
2018-09-24T13:55:09.368Z,12.20
2018-09-24T13:57:43.224Z,11.80
2018-09-24T14:00:16.769Z,11.30
2018-09-24T14:02:50.089Z,11.10
2018-09-24T14:05:24.078Z,10.80
2018-09-24T14:07:57.294Z,10.60
2018-09-24T14:10:32.073Z,10.60
2018-09-24T14:13:11.621Z,10.70
2018-09-24T14:15:45.262Z,10.80
2018-09-24T14:18:27.646Z,10.90
2018-09-24T14:21:01.449Z,11.10
2018-09-24T14:23:35.276Z,11.20
2018-09-24T14:26:16.914Z,11.20
2018-09-24T14:28:50.621Z,11.40
2018-09-24T14:31:25.456Z,11.60
2018-09-24T14:33:59.705Z,11.80
2018-09-24T14:36:34.981Z,11.90
2018-09-24T14:39:17.343Z,11.70
2018-09-24T14:41:50.918Z,11.40
2018-09-24T14:44:24.769Z,11.10
2018-09-24T14:46:58.624Z,10.90
2018-09-24T14:49:35.086Z,10.70
2018-09-24T14:52:10.035Z,10.60
2018-09-24T14:54:51.335Z,10.80
2018-09-24T14:57:25.309Z,11.00
2018-09-24T15:00:01.014Z,11.10
2018-09-24T15:02:35.670Z,11.20
2018-09-24T15:05:09.393Z,11.30
2018-09-24T15:07:43.096Z,11.30
2018-09-24T15:10:24.783Z,11.50
2018-09-24T15:12:58.374Z,11.70
2018-09-24T15:15:43.863Z,11.90
2018-09-24T15:21:04.936Z,11.80
2018-09-24T15:23:40.152Z,11.70
2018-09-24T15:26:23.548Z,11.50
2018-09-24T15:32:02.076Z,11.30
2018-09-24T15:34:36.023Z,11.30
2018-09-24T15:38:33.206Z,11.10
2018-09-24T15:43:54.767Z,11.50
2018-09-24T15:46:28.513Z,11.30
2018-09-24T15:49:02.814Z,11.10
2018-09-24T16:06:33.277Z,10.70
2018-09-24T16:09:23.997Z,10.80
2018-09-24T16:12:07.136Z,10.60
2018-09-24T16:15:07.060Z,10.50
2018-09-24T16:17:47.667Z,10.30
2018-09-24T16:34:38.698Z,10.10
2018-09-24T16:40:54.943Z,10.00
2018-09-24T16:46:39.148Z,9.90
2018-09-24T16:49:31.548Z,9.80
2018-09-24T16:55:03.664Z,9.50
2018-09-24T16:57:42.006Z,9.50
2018-09-24T17:00:24.498Z,9.40
2018-09-24T17:05:49.001Z,9.30
2018-09-24T17:08:41.030Z,9.20
2018-09-24T17:11:46.004Z,9.10
2018-09-24T18:18:17.268Z,8.00
2018-09-24T18:26:32.633Z,7.90
2018-09-24T18:29:10.709Z,7.80
2018-09-24T18:34:47.858Z,7.80
2018-09-24T18:37:24.526Z,7.70
2018-09-24T18:40:09.561Z,7.70
2018-09-24T18:43:22.397Z,7.80
2018-09-24T18:46:23.971Z,7.80
2018-09-24T19:02:51.753Z,7.80
2018-09-24T19:05:25.616Z,7.60
2018-09-24T19:08:00.061Z,7.50
2018-09-24T19:10:33.634Z,7.50
2018-09-24T19:13:09.314Z,7.40
2018-09-24T19:15:44.847Z,7.40
2018-09-24T19:18:18.202Z,7.30
2018-09-24T19:20:52.300Z,7.30
2018-09-24T19:23:26.028Z,7.30
2018-09-24T19:26:01.265Z,7.20
2018-09-24T19:28:36.037Z,7.20
2018-09-24T19:31:09.769Z,7.20
2018-09-24T19:33:43.869Z,7.10
2018-09-24T19:36:17.793Z,7.10
2018-09-24T19:38:52.698Z,7.10
2018-09-24T19:41:27.876Z,7.10
2018-09-24T19:44:02.808Z,7.10
2018-09-24T19:46:38.303Z,7.00
2018-09-24T19:49:13.082Z,7.00
2018-09-24T19:51:50.911Z,7.00
2018-09-24T19:54:27.159Z,7.00
2018-09-24T19:57:00.531Z,7.00
2018-09-24T19:59:34.392Z,7.00
2018-09-24T20:02:08.119Z,7.00
2018-09-24T20:04:41.831Z,7.00
2018-09-24T20:07:15.557Z,6.90
2018-09-24T20:09:49.302Z,6.90
2018-09-24T20:12:23.656Z,6.90
2018-09-24T20:14:57.281Z,6.90
2018-09-24T20:17:30.944Z,6.80
2018-09-24T20:20:04.746Z,6.80
2018-09-24T20:22:38.361Z,6.80
2018-09-24T20:25:12.278Z,6.80
2018-09-24T20:27:47.340Z,6.80
2018-09-24T20:30:20.893Z,6.90
2018-09-24T20:32:55.514Z,6.80
2018-09-24T20:35:29.760Z,6.90
2018-09-24T20:38:05.278Z,6.80
2018-09-24T20:40:39.587Z,6.80
2018-09-24T20:43:15.028Z,6.80
2018-09-24T20:45:50.886Z,6.70
2018-09-24T20:48:24.092Z,6.80
2018-09-24T20:50:57.641Z,6.70
2018-09-24T20:53:31.418Z,6.70
2018-09-24T20:56:04.889Z,6.70
2018-09-24T20:58:45.315Z,6.60
2018-09-24T21:01:18.881Z,6.60
2018-09-24T21:03:52.816Z,6.70
2018-09-24T21:06:26.214Z,6.60
2018-09-24T21:09:01.095Z,6.60
2018-09-24T21:11:36.760Z,6.60
2018-09-24T21:14:11.316Z,6.60
2018-09-24T21:16:46.524Z,6.60
2018-09-24T21:19:21.258Z,6.60
2018-09-24T21:21:54.967Z,6.60
2018-09-24T21:24:28.364Z,6.60
2018-09-24T21:27:03.606Z,6.50
2018-09-24T21:29:38.141Z,6.50
2018-09-24T21:32:13.725Z,6.50
2018-09-24T21:34:46.955Z,6.50
2018-09-24T21:37:22.515Z,6.50
2018-09-24T21:39:58.396Z,6.40
2018-09-24T21:42:33.599Z,6.40
2018-09-24T21:45:07.223Z,6.40
2018-09-24T21:47:42.815Z,6.40
2018-09-24T21:50:17.441Z,6.40
2018-09-24T21:52:51.344Z,6.40
2018-09-24T21:55:24.686Z,6.30
2018-09-24T21:57:59.164Z,6.30
2018-09-24T22:00:33.719Z,6.20
2018-09-24T22:03:08.611Z,6.20
2018-09-24T22:05:42.168Z,6.20
2018-09-24T22:08:17.784Z,6.20
2018-09-24T22:10:51.112Z,6.20
2018-09-24T22:13:25.338Z,6.20
2018-09-24T22:16:01.476Z,6.20
2018-09-24T22:18:35.858Z,6.10
2018-09-24T22:21:09.644Z,6.10
2018-09-24T22:23:44.764Z,6.00
2018-09-24T22:26:19.111Z,6.10
2018-09-24T22:28:52.944Z,6.00
2018-09-24T22:31:26.667Z,6.00
2018-09-24T22:34:02.512Z,6.00
2018-09-24T22:36:36.594Z,6.00
2018-09-24T22:39:14.040Z,6.00
2018-09-24T22:41:48.647Z,5.90
2018-09-24T22:44:22.584Z,5.90
2018-09-24T22:46:58.982Z,5.90
2018-09-24T22:49:32.214Z,5.80
2018-09-24T22:52:07.055Z,5.80
2018-09-24T22:54:41.410Z,5.80
2018-09-24T22:57:14.973Z,5.80
2018-09-24T22:59:50.041Z,5.70
2018-09-24T23:02:23.306Z,5.70
2018-09-24T23:04:56.380Z,5.60
2018-09-24T23:07:31.502Z,5.50
2018-09-24T23:10:05.626Z,5.50
2018-09-24T23:12:38.928Z,5.40
2018-09-24T23:15:13.365Z,5.30
2018-09-24T23:17:47.196Z,5.20
2018-09-24T23:20:20.440Z,5.20
2018-09-24T23:22:54.551Z,5.10
2018-09-24T23:25:28.692Z,5.10
2018-09-24T23:28:02.044Z,4.90
2018-09-24T23:30:35.339Z,4.80
2018-09-24T23:33:08.511Z,4.80
2018-09-24T23:35:42.404Z,4.80
2018-09-24T23:38:15.881Z,4.80
2018-09-24T23:40:49.462Z,4.90
2018-09-24T23:43:23.121Z,4.90
2018-09-24T23:45:56.828Z,4.90
2018-09-24T23:48:29.902Z,5.00
2018-09-24T23:51:03.204Z,5.00
2018-09-24T23:53:36.407Z,5.10
2018-09-24T23:56:10.654Z,5.10
2018-09-24T23:58:43.796Z,5.10
